createdAt,value
2016-08-26T00:00:45.470Z,0
2016-08-26T00:01:45.839Z,0
2016-08-26T00:02:45.392Z,0
2016-08-26T00:03:44.654Z,0
2016-08-26T00:04:45.331Z,0
2016-08-26T00:05:45.312Z,0
2016-08-26T00:06:45.218Z,0
2016-08-26T00:07:45.392Z,0
2016-08-26T00:08:45.350Z,0
2016-08-26T00:09:44.418Z,0
2016-08-26T00:10:45.082Z,0
2016-08-26T00:11:45.003Z,0
2016-08-26T00:12:44.992Z,0
2016-08-26T00:13:44.942Z,0
2016-08-26T00:14:45.104Z,0
2016-08-26T00:15:44.843Z,0
2016-08-26T00:16:44.842Z,0
2016-08-26T00:17:44.759Z,0
2016-08-26T00:18:44.954Z,0
2016-08-26T00:19:42.593Z,0
2016-08-26T00:20:44.635Z,0
2016-08-26T00:21:44.592Z,0
2016-08-26T00:22:43.886Z,0
2016-08-26T00:23:44.704Z,0
2016-08-26T00:24:44.505Z,0
2016-08-26T00:25:44.448Z,0
2016-08-26T00:26:44.500Z,0
2016-08-26T00:27:44.354Z,0
2016-08-26T00:28:44.526Z,0
2016-08-26T00:29:42.900Z,0
2016-08-26T00:30:43.546Z,0
2016-08-26T00:31:44.200Z,0
2016-08-26T00:32:44.138Z,0
2016-08-26T00:33:43.406Z,0
2016-08-26T00:34:44.072Z,0
2016-08-26T00:35:44.235Z,0
2016-08-26T00:36:44.999Z,0
2016-08-26T00:37:43.626Z,0
2016-08-26T00:38:43.206Z,0
2016-08-26T00:39:43.884Z,0
2016-08-26T00:40:44.246Z,0
2016-08-26T00:41:43.268Z,0
2016-08-26T00:42:43.727Z,0
2016-08-26T00:43:43.689Z,0
2016-08-26T00:44:43.650Z,0
2016-08-26T00:45:44.000Z,0
2016-08-26T00:46:43.484Z,0
2016-08-26T00:47:43.947Z,0
2016-08-26T00:48:43.480Z,0
2016-08-26T00:49:43.442Z,0
2016-08-26T00:50:43.601Z,0
2016-08-26T00:51:43.429Z,0
2016-08-26T00:52:43.522Z,0
2016-08-26T00:53:43.476Z,0
2016-08-26T00:54:43.262Z,0
2016-08-26T00:55:43.399Z,0
2016-08-26T00:56:42.452Z,0
2016-08-26T00:57:42.447Z,0
2016-08-26T00:58:43.271Z,0
2016-08-26T00:59:43.037Z,0
2016-08-26T01:00:41.676Z,0
2016-08-26T01:01:42.943Z,0
2016-08-26T01:02:42.924Z,0
2016-08-26T01:03:42.859Z,0
2016-08-26T01:04:42.844Z,0
2016-08-26T01:05:42.776Z,0
2016-08-26T01:06:43.017Z,0
2016-08-26T01:07:42.726Z,0
2016-08-26T01:08:42.192Z,0
2016-08-26T01:09:42.715Z,0
2016-08-26T01:10:42.568Z,0
2016-08-26T01:11:42.516Z,0
2016-08-26T01:12:42.667Z,0
2016-08-26T01:13:42.596Z,0
2016-08-26T01:14:42.385Z,0
2016-08-26T01:15:42.353Z,0
2016-08-26T01:16:42.754Z,0
2016-08-26T01:17:42.278Z,0
2016-08-26T01:18:42.236Z,0
2016-08-26T01:19:41.690Z,0
2016-08-26T01:20:42.347Z,0
2016-08-26T01:21:41.409Z,0
2016-08-26T01:22:42.067Z,0
2016-08-26T01:23:42.269Z,0
2016-08-26T01:24:42.197Z,0
2016-08-26T01:25:42.199Z,0
2016-08-26T01:26:42.100Z,0
2016-08-26T01:27:42.143Z,0
2016-08-26T01:28:41.383Z,0
2016-08-26T01:29:42.199Z,0
2016-08-26T01:30:41.827Z,0
2016-08-26T01:31:42.123Z,0
2016-08-26T01:32:41.664Z,0
2016-08-26T01:33:41.613Z,0
2016-08-26T01:34:41.574Z,0
2016-08-26T01:35:41.874Z,0
2016-08-26T01:36:41.489Z,0
2016-08-26T01:37:41.645Z,0
2016-08-26T01:38:41.404Z,0
2016-08-26T01:39:41.355Z,0
2016-08-26T01:40:41.524Z,0
2016-08-26T01:41:41.265Z,0
2016-08-26T01:42:41.241Z,0
2016-08-26T01:43:40.705Z,0
2016-08-26T01:44:40.656Z,0
2016-08-26T01:45:40.634Z,0
2016-08-26T01:46:41.306Z,0
2016-08-26T01:47:41.014Z,0
2016-08-26T01:48:40.983Z,0
2016-08-26T01:49:40.242Z,0
2016-08-26T01:50:40.953Z,0
2016-08-26T01:51:40.362Z,0
2016-08-26T01:52:40.815Z,0
2016-08-26T01:53:40.272Z,0
2016-08-26T01:54:40.933Z,0
2016-08-26T01:55:40.935Z,0
2016-08-26T01:56:40.853Z,0
2016-08-26T01:57:40.602Z,0
2016-08-26T01:58:40.550Z,0
2016-08-26T01:59:39.114Z,0
2016-08-26T02:00:40.719Z,0
2016-08-26T02:01:40.440Z,0
2016-08-26T02:02:40.582Z,0
2016-08-26T02:03:39.361Z,0
2016-08-26T02:04:40.511Z,0
2016-08-26T02:05:40.495Z,0
2016-08-26T02:06:40.234Z,0
2016-08-26T02:07:39.672Z,0
2016-08-26T02:08:41.197Z,0
2016-08-26T02:09:39.180Z,0
2016-08-26T02:10:40.255Z,0
2016-08-26T02:11:40.015Z,0
2016-08-26T02:12:39.677Z,0
2016-08-26T02:13:40.148Z,0
2016-08-26T02:14:39.394Z,0
2016-08-26T02:15:40.254Z,0
2016-08-26T02:16:39.940Z,0
2016-08-26T02:17:40.076Z,0
2016-08-26T02:18:40.127Z,0
2016-08-26T02:19:39.758Z,0
2016-08-26T02:20:39.854Z,0
2016-08-26T02:21:39.235Z,0
2016-08-26T02:22:39.556Z,0
2016-08-26T02:23:39.958Z,0
2016-08-26T02:24:38.968Z,0
2016-08-26T02:25:39.437Z,0
2016-08-26T02:26:39.395Z,0
2016-08-26T02:27:39.534Z,0
2016-08-26T02:28:39.495Z,0
2016-08-26T02:29:39.256Z,0
2016-08-26T02:30:38.756Z,0
2016-08-26T02:31:38.476Z,0
2016-08-26T02:32:39.116Z,0
2016-08-26T02:33:39.306Z,0
2016-08-26T02:34:38.344Z,0
2016-08-26T02:35:39.595Z,0
2016-08-26T02:36:39.168Z,0
2016-08-26T02:37:39.012Z,0
2016-08-26T02:38:39.185Z,0
2016-08-26T02:39:39.076Z,0
2016-08-26T02:40:39.397Z,0
2016-08-26T02:41:38.737Z,0
2016-08-26T02:42:39.504Z,0
2016-08-26T02:43:37.964Z,0
2016-08-26T02:44:39.026Z,0
2016-08-26T02:45:37.882Z,0
2016-08-26T02:46:38.768Z,0
2016-08-26T02:47:37.820Z,0
2016-08-26T02:48:38.658Z,0
2016-08-26T02:49:38.398Z,0
2016-08-26T02:50:38.787Z,0
2016-08-26T02:51:38.336Z,0
2016-08-26T02:52:38.285Z,0
2016-08-26T02:53:38.279Z,0
2016-08-26T02:54:38.403Z,0
2016-08-26T02:55:37.551Z,0
2016-08-26T02:56:38.310Z,0
2016-08-26T02:57:37.370Z,0
2016-08-26T02:58:38.023Z,0
2016-08-26T02:59:38.194Z,0
2016-08-26T03:00:37.945Z,0
2016-08-26T03:01:38.103Z,0
2016-08-26T03:02:38.064Z,0
2016-08-26T03:03:38.014Z,0
2016-08-26T03:04:37.975Z,0
2016-08-26T03:05:37.738Z,0
2016-08-26T03:06:37.693Z,0
2016-08-26T03:07:37.664Z,0
2016-08-26T03:08:38.014Z,0
2016-08-26T03:09:37.034Z,0
2016-08-26T03:10:37.582Z,0
2016-08-26T03:11:37.479Z,0
2016-08-26T03:12:37.446Z,0
2016-08-26T03:13:37.381Z,0
2016-08-26T03:14:37.405Z,0
2016-08-26T03:15:37.321Z,0
2016-08-26T03:16:36.557Z,0
2016-08-26T03:17:37.213Z,0
2016-08-26T03:18:36.694Z,0
2016-08-26T03:19:37.764Z,0
2016-08-26T03:20:37.288Z,0
2016-08-26T03:21:36.345Z,0
2016-08-26T03:22:37.103Z,0
2016-08-26T03:23:37.226Z,0
2016-08-26T03:24:37.035Z,0
2016-08-26T03:25:36.985Z,0
2016-08-26T03:26:36.133Z,0
2016-08-26T03:27:36.235Z,0
2016-08-26T03:28:36.751Z,0
2016-08-26T03:29:36.726Z,0
2016-08-26T03:30:36.704Z,0
2016-08-26T03:31:36.630Z,0
2016-08-26T03:32:36.583Z,0
2016-08-26T03:33:36.541Z,0
2016-08-26T03:34:36.505Z,0
2016-08-26T03:35:36.465Z,0
2016-08-26T03:36:36.422Z,0
2016-08-26T03:37:36.614Z,0
2016-08-26T03:38:35.663Z,0
2016-08-26T03:39:36.517Z,0
2016-08-26T03:40:36.446Z,0
2016-08-26T03:41:35.515Z,0
2016-08-26T03:42:36.354Z,0
2016-08-26T03:43:36.136Z,0
2016-08-26T03:44:36.274Z,0
2016-08-26T03:45:36.034Z,0
2016-08-26T03:46:35.994Z,0
2016-08-26T03:47:35.455Z,0
2016-08-26T03:48:36.123Z,0
2016-08-26T03:49:35.863Z,0
2016-08-26T03:50:35.127Z,0
2016-08-26T03:51:35.084Z,0
2016-08-26T03:52:35.768Z,0
2016-08-26T03:53:35.705Z,0
2016-08-26T03:54:34.950Z,0
2016-08-26T03:55:35.618Z,0
2016-08-26T03:56:35.562Z,0
2016-08-26T03:57:34.813Z,0
2016-08-26T03:58:35.491Z,0
2016-08-26T03:59:35.434Z,0
2016-08-26T04:00:35.384Z,0
2016-08-26T04:01:35.357Z,0
2016-08-26T04:02:35.714Z,0
2016-08-26T04:03:35.266Z,0
2016-08-26T04:04:34.531Z,0
2016-08-26T04:05:35.211Z,0
2016-08-26T04:06:33.945Z,0
2016-08-26T04:07:35.297Z,0
2016-08-26T04:08:35.254Z,0
2016-08-26T04:09:35.236Z,0
2016-08-26T04:10:34.989Z,4
2016-08-26T04:11:34.919Z,4
2016-08-26T04:12:34.893Z,0
2016-08-26T04:13:34.563Z,0
2016-08-26T04:14:34.369Z,4
2016-08-26T04:15:35.165Z,0
2016-08-26T04:16:34.964Z,4
2016-08-26T04:17:34.236Z,4
2016-08-26T04:18:34.529Z,4
2016-08-26T04:19:33.393Z,4
2016-08-26T04:20:33.890Z,8
2016-08-26T04:21:34.571Z,8
2016-08-26T04:22:35.876Z,8
2016-08-26T04:23:34.470Z,12
2016-08-26T04:24:34.375Z,12
2016-08-26T04:25:34.535Z,16
2016-08-26T04:26:33.805Z,16
2016-08-26T04:27:33.966Z,20
2016-08-26T04:28:34.438Z,24
2016-08-26T04:29:34.404Z,24
2016-08-26T04:30:33.456Z,28
2016-08-26T04:31:33.640Z,28
2016-08-26T04:32:34.194Z,32
2016-08-26T04:33:34.021Z,36
2016-08-26T04:34:34.226Z,40
2016-08-26T04:35:34.205Z,44
2016-08-26T04:36:33.888Z,48
2016-08-26T04:37:33.815Z,56
2016-08-26T04:38:33.301Z,56
2016-08-26T04:39:32.558Z,60
2016-08-26T04:40:32.303Z,68
2016-08-26T04:41:33.668Z,76
2016-08-26T04:42:32.929Z,80
2016-08-26T04:43:33.285Z,84
2016-08-26T04:44:32.830Z,92
2016-08-26T04:45:32.772Z,100
2016-08-26T04:46:33.495Z,104
2016-08-26T04:47:32.704Z,112
2016-08-26T04:48:33.350Z,120
2016-08-26T04:49:32.601Z,124
2016-08-26T04:50:32.559Z,132
2016-08-26T04:51:33.233Z,140
2016-08-26T04:52:33.376Z,144
2016-08-26T04:53:33.345Z,152
2016-08-26T04:54:33.108Z,156
2016-08-26T04:55:33.060Z,164
2016-08-26T04:56:32.517Z,168
2016-08-26T04:57:31.608Z,176
2016-08-26T04:58:32.923Z,184
2016-08-26T04:59:33.108Z,192
2016-08-26T05:00:32.948Z,200
2016-08-26T05:01:33.019Z,208
2016-08-26T05:02:32.982Z,216
2016-08-26T05:03:33.358Z,220
2016-08-26T05:04:31.986Z,232
2016-08-26T05:05:30.558Z,240
2016-08-26T05:06:32.598Z,248
2016-08-26T05:07:31.138Z,256
2016-08-26T05:08:32.703Z,264
2016-08-26T05:09:32.665Z,272
2016-08-26T05:10:31.906Z,284
2016-08-26T05:11:32.364Z,292
2016-08-26T05:12:32.523Z,296
2016-08-26T05:13:32.355Z,308
2016-08-26T05:14:31.546Z,312
2016-08-26T05:15:32.404Z,328
2016-08-26T05:16:31.467Z,336
2016-08-26T05:17:32.124Z,344
2016-08-26T05:18:31.600Z,356
2016-08-26T05:19:31.766Z,364
2016-08-26T05:20:32.202Z,372
2016-08-26T05:21:31.468Z,376
2016-08-26T05:22:31.425Z,388
2016-08-26T05:23:31.919Z,392
2016-08-26T05:24:31.129Z,404
2016-08-26T05:25:31.287Z,408
2016-08-26T05:26:31.747Z,416
2016-08-26T05:27:32.094Z,420
2016-08-26T05:28:31.154Z,432
2016-08-26T05:29:30.924Z,440
2016-08-26T05:30:31.583Z,444
2016-08-26T05:31:31.715Z,456
2016-08-26T05:32:31.682Z,460
2016-08-26T05:33:31.823Z,468
2016-08-26T05:34:30.706Z,476
2016-08-26T05:35:31.544Z,488
2016-08-26T05:36:30.826Z,496
2016-08-26T05:37:29.881Z,504
2016-08-26T05:38:30.530Z,520
2016-08-26T05:39:31.164Z,524
2016-08-26T05:40:31.548Z,528
2016-08-26T05:41:31.104Z,540
2016-08-26T05:42:31.058Z,552
2016-08-26T05:43:31.213Z,560
2016-08-26T05:44:30.278Z,568
2016-08-26T05:45:30.914Z,576
2016-08-26T05:46:29.693Z,580
2016-08-26T05:47:30.892Z,588
2016-08-26T05:48:30.272Z,600
2016-08-26T05:49:30.054Z,608
2016-08-26T05:50:29.562Z,616
2016-08-26T05:51:30.173Z,620
2016-08-26T05:52:30.334Z,632
2016-08-26T05:53:29.883Z,636
2016-08-26T05:54:29.141Z,648
2016-08-26T05:55:29.831Z,664
2016-08-26T05:56:31.444Z,672
2016-08-26T05:57:30.432Z,684
2016-08-26T05:58:30.383Z,700
2016-08-26T05:59:29.615Z,712
2016-08-26T06:00:30.306Z,728
2016-08-26T06:01:30.451Z,740
2016-08-26T06:02:30.199Z,756
2016-08-26T06:03:29.473Z,776
2016-08-26T06:04:30.303Z,796
2016-08-26T06:05:30.094Z,820
2016-08-26T06:06:29.532Z,836
2016-08-26T06:07:29.974Z,852
2016-08-26T06:08:30.143Z,864
2016-08-26T06:09:29.910Z,880
2016-08-26T06:10:29.849Z,892
2016-08-26T06:11:29.143Z,904
2016-08-26T06:12:30.035Z,920
2016-08-26T06:13:29.933Z,936
2016-08-26T06:14:29.972Z,960
2016-08-26T06:15:28.933Z,976
2016-08-26T06:16:29.596Z,988
2016-08-26T06:17:29.079Z,1016
2016-08-26T06:18:29.504Z,1032
2016-08-26T06:19:29.701Z,1044
2016-08-26T06:20:29.449Z,1056
2016-08-26T06:21:29.371Z,1056
2016-08-26T06:22:29.344Z,924
2016-08-26T06:23:29.300Z,1088
2016-08-26T06:24:29.254Z,976
2016-08-26T06:25:29.215Z,844
2016-08-26T06:26:28.887Z,992
2016-08-26T06:27:28.430Z,996
2016-08-26T06:28:29.283Z,1052
2016-08-26T06:29:28.553Z,1116
2016-08-26T06:30:27.819Z,1212
2016-08-26T06:31:28.291Z,1228
2016-08-26T06:32:28.913Z,1264
2016-08-26T06:33:28.881Z,1292
2016-08-26T06:34:28.842Z,1244
2016-08-26T06:35:28.798Z,1212
2016-08-26T06:36:28.757Z,1320
2016-08-26T06:37:28.923Z,1344
2016-08-26T06:38:27.993Z,1372
2016-08-26T06:39:28.322Z,1388
2016-08-26T06:40:27.194Z,1268
2016-08-26T06:41:28.542Z,892
2016-08-26T06:42:28.025Z,1056
2016-08-26T06:43:28.699Z,1524
2016-08-26T06:44:28.425Z,1544
2016-08-26T06:45:28.385Z,1560
2016-08-26T06:46:28.776Z,1552
2016-08-26T06:47:27.110Z,1576
2016-08-26T06:48:27.763Z,1560
2016-08-26T06:49:27.502Z,1384
2016-08-26T06:50:27.665Z,1304
2016-08-26T06:51:28.321Z,1252
2016-08-26T06:52:27.586Z,1316
2016-08-26T06:53:28.094Z,1620
2016-08-26T06:54:29.243Z,1676
2016-08-26T06:55:27.972Z,1628
2016-08-26T06:56:27.229Z,1588
2016-08-26T06:57:28.080Z,1536
2016-08-26T06:58:27.135Z,1616
2016-08-26T06:59:27.085Z,1668
2016-08-26T07:00:27.933Z,1852
2016-08-26T07:01:27.220Z,1876
2016-08-26T07:02:27.875Z,1828
2016-08-26T07:03:27.638Z,1908
2016-08-26T07:04:27.644Z,2004
2016-08-26T07:05:26.187Z,2052
2016-08-26T07:06:27.501Z,2084
2016-08-26T07:07:27.921Z,2120
2016-08-26T07:08:27.608Z,2168
2016-08-26T07:09:26.889Z,2184
2016-08-26T07:10:28.026Z,2248
2016-08-26T07:11:26.602Z,2316
2016-08-26T07:12:26.760Z,2368
2016-08-26T07:13:26.022Z,2392
2016-08-26T07:14:26.562Z,2416
2016-08-26T07:15:27.359Z,2244
2016-08-26T07:16:27.093Z,2520
2016-08-26T07:17:27.453Z,2560
2016-08-26T07:18:26.523Z,2172
2016-08-26T07:19:27.163Z,2500
2016-08-26T07:20:26.241Z,2300
2016-08-26T07:21:27.329Z,2484
2016-08-26T07:22:26.141Z,2444
2016-08-26T07:23:26.811Z,2040
2016-08-26T07:24:26.964Z,1544
2016-08-26T07:25:26.774Z,2544
2016-08-26T07:26:26.713Z,2572
2016-08-26T07:27:26.670Z,2712
2016-08-26T07:28:26.296Z,2908
2016-08-26T07:29:25.881Z,2872
2016-08-26T07:30:26.645Z,2744
2016-08-26T07:31:26.548Z,2516
2016-08-26T07:32:26.742Z,2692
2016-08-26T07:33:26.488Z,2696
2016-08-26T07:34:25.850Z,2548
2016-08-26T07:35:25.596Z,2240
2016-08-26T07:36:25.617Z,1844
2016-08-26T07:37:26.219Z,2364
2016-08-26T07:38:26.261Z,3004
2016-08-26T07:39:25.454Z,2772
2016-08-26T07:40:25.494Z,2648
2016-08-26T07:41:25.588Z,3132
2016-08-26T07:42:26.241Z,3188
2016-08-26T07:43:26.381Z,3224
2016-08-26T07:44:25.959Z,3256
2016-08-26T07:45:25.946Z,3300
2016-08-26T07:46:25.865Z,3252
2016-08-26T07:47:25.145Z,3348
2016-08-26T07:48:25.139Z,3300
2016-08-26T07:49:25.140Z,3188
2016-08-26T07:50:25.695Z,3112
2016-08-26T07:51:25.640Z,2680
2016-08-26T07:52:24.410Z,3308
2016-08-26T07:53:25.633Z,3240
2016-08-26T07:54:24.830Z,2632
2016-08-26T07:55:24.817Z,3572
2016-08-26T07:56:25.675Z,3056
2016-08-26T07:57:25.932Z,2916
2016-08-26T07:58:25.414Z,3484
2016-08-26T07:59:24.644Z,3688
2016-08-26T08:00:25.292Z,3716
2016-08-26T08:01:25.500Z,3716
2016-08-26T08:02:24.716Z,3740
2016-08-26T08:03:25.381Z,3716
2016-08-26T08:04:25.170Z,3788
2016-08-26T08:05:24.421Z,3820
2016-08-26T08:06:24.336Z,3812
2016-08-26T08:07:24.999Z,3828
2016-08-26T08:08:23.740Z,3876
2016-08-26T08:09:25.132Z,3892
2016-08-26T08:10:24.180Z,3624
2016-08-26T08:11:25.098Z,3916
2016-08-26T08:12:24.795Z,3880
2016-08-26T08:13:23.549Z,3932
2016-08-26T08:14:24.020Z,3840
2016-08-26T08:15:25.278Z,3840
2016-08-26T08:16:23.917Z,3876
2016-08-26T08:17:24.628Z,3932
2016-08-26T08:18:24.546Z,3928
2016-08-26T08:19:24.533Z,3912
2016-08-26T08:20:23.882Z,3856
2016-08-26T08:21:24.440Z,3936
2016-08-26T08:22:23.736Z,3956
2016-08-26T08:23:24.420Z,3796
2016-08-26T08:24:24.346Z,3744
2016-08-26T08:25:23.606Z,3848
2016-08-26T08:26:24.422Z,3792
2016-08-26T08:27:23.528Z,3892
2016-08-26T08:28:24.174Z,3972
2016-08-26T08:29:23.419Z,4012
2016-08-26T08:30:23.426Z,4020
2016-08-26T08:31:23.357Z,4024
2016-08-26T08:32:23.548Z,4048
2016-08-26T08:33:22.575Z,4060
2016-08-26T08:34:24.309Z,4044
2016-08-26T08:35:24.092Z,4044
2016-08-26T08:36:23.843Z,4028
2016-08-26T08:37:22.419Z,4060
2016-08-26T08:38:23.758Z,4064
2016-08-26T08:39:23.922Z,3980
2016-08-26T08:40:23.671Z,3956
2016-08-26T08:41:22.981Z,3592
2016-08-26T08:42:23.092Z,3996
2016-08-26T08:43:23.825Z,4080
2016-08-26T08:44:23.516Z,4020
2016-08-26T08:45:22.870Z,4080
2016-08-26T08:46:23.516Z,4092
2016-08-26T08:47:21.491Z,3304
2016-08-26T08:48:23.293Z,4104
2016-08-26T08:49:22.038Z,4104
2016-08-26T08:50:21.997Z,4100
2016-08-26T08:51:23.338Z,4092
2016-08-26T08:52:22.688Z,4088
2016-08-26T08:53:22.768Z,4096
2016-08-26T08:54:21.088Z,4100
2016-08-26T08:55:22.359Z,4100
2016-08-26T08:56:23.072Z,3756
2016-08-26T08:57:22.181Z,3764
2016-08-26T08:58:21.555Z,4104
2016-08-26T08:59:22.245Z,4100
2016-08-26T09:00:22.928Z,4096
2016-08-26T09:01:22.135Z,4112
2016-08-26T09:02:22.887Z,4120
2016-08-26T09:03:22.761Z,4116
2016-08-26T09:04:22.811Z,4108
2016-08-26T09:05:22.886Z,4100
2016-08-26T09:06:22.136Z,4096
2016-08-26T09:07:22.652Z,4072
2016-08-26T09:08:22.965Z,4108
2016-08-26T09:09:21.319Z,4108
2016-08-26T09:10:21.769Z,4112
2016-08-26T09:11:22.434Z,4108
2016-08-26T09:12:21.762Z,4120
2016-08-26T09:13:22.053Z,4132
2016-08-26T09:14:20.953Z,4136
2016-08-26T09:15:21.601Z,4160
2016-08-26T09:16:21.743Z,4152
2016-08-26T09:17:22.249Z,4156
2016-08-26T09:18:22.908Z,4164
2016-08-26T09:19:21.435Z,4172
2016-08-26T09:20:22.113Z,4176
2016-08-26T09:21:21.386Z,4148
2016-08-26T09:22:21.354Z,4124
2016-08-26T09:23:21.963Z,4108
2016-08-26T09:24:21.247Z,4096
2016-08-26T09:25:21.261Z,4084
2016-08-26T09:26:21.831Z,4080
2016-08-26T09:27:20.443Z,4076
2016-08-26T09:28:21.884Z,4092
2016-08-26T09:29:21.782Z,4072
2016-08-26T09:30:20.959Z,4056
2016-08-26T09:31:20.437Z,4064
2016-08-26T09:32:20.909Z,4068
2016-08-26T09:33:20.871Z,4056
2016-08-26T09:34:21.545Z,4056
2016-08-26T09:35:21.539Z,4056
2016-08-26T09:36:21.474Z,4032
2016-08-26T09:37:21.530Z,4036
2016-08-26T09:38:20.696Z,4024
2016-08-26T09:39:20.814Z,4016
2016-08-26T09:40:20.798Z,4024
2016-08-26T09:41:21.292Z,4004
2016-08-26T09:42:21.629Z,4000
2016-08-26T09:43:20.546Z,3984
2016-08-26T09:44:20.636Z,3832
2016-08-26T09:45:20.637Z,3992
2016-08-26T09:46:20.361Z,3944
2016-08-26T09:47:20.514Z,3984
2016-08-26T09:48:20.968Z,3996
2016-08-26T09:49:21.191Z,4008
2016-08-26T09:50:19.872Z,4012
2016-08-26T09:51:21.085Z,4020
2016-08-26T09:52:20.887Z,3780
2016-08-26T09:53:20.393Z,4036
2016-08-26T09:54:20.078Z,4020
2016-08-26T09:55:20.783Z,4032
2016-08-26T09:56:20.786Z,4016
2016-08-26T09:57:20.686Z,4000
2016-08-26T09:58:19.411Z,3976
2016-08-26T09:59:20.567Z,3960
2016-08-26T10:00:20.900Z,3868
2016-08-26T10:01:20.133Z,3948
2016-08-26T10:02:20.559Z,3928
2016-08-26T10:03:19.745Z,3924
2016-08-26T10:04:19.742Z,3924
2016-08-26T10:05:20.565Z,3912
2016-08-26T10:06:18.859Z,3904
2016-08-26T10:07:20.220Z,3904
2016-08-26T10:08:19.490Z,3868
2016-08-26T10:09:19.962Z,3836
2016-08-26T10:10:22.536Z,3840
2016-08-26T10:11:20.592Z,3860
2016-08-26T10:12:20.242Z,3860
2016-08-26T10:13:19.576Z,3860
2016-08-26T10:14:19.986Z,3876
2016-08-26T10:15:18.553Z,3876
2016-08-26T10:16:19.217Z,3868
2016-08-26T10:17:18.446Z,3852
2016-08-26T10:18:19.123Z,3820
2016-08-26T10:19:19.788Z,3812
2016-08-26T10:20:18.550Z,3808
2016-08-26T10:21:19.741Z,3796
2016-08-26T10:22:18.317Z,3800
2016-08-26T10:23:18.919Z,3800
2016-08-26T10:24:19.617Z,3788
2016-08-26T10:25:19.637Z,3800
2016-08-26T10:26:18.992Z,3076
2016-08-26T10:27:18.985Z,3688
2016-08-26T10:28:18.935Z,3792
2016-08-26T10:29:19.846Z,3804
2016-08-26T10:30:19.753Z,3796
2016-08-26T10:31:18.620Z,3476
2016-08-26T10:32:18.761Z,2960
2016-08-26T10:33:19.696Z,1908
2016-08-26T10:34:18.697Z,2916
2016-08-26T10:35:17.803Z,2944
2016-08-26T10:36:18.621Z,3588
2016-08-26T10:37:18.431Z,3524
2016-08-26T10:38:18.718Z,3700
2016-08-26T10:39:19.367Z,3664
2016-08-26T10:40:19.107Z,3636
2016-08-26T10:41:17.847Z,3608
2016-08-26T10:42:18.971Z,3588
2016-08-26T10:43:18.879Z,3560
2016-08-26T10:44:18.300Z,3576
2016-08-26T10:45:19.027Z,3560
2016-08-26T10:46:18.737Z,3384
2016-08-26T10:47:18.011Z,3168
2016-08-26T10:48:18.672Z,3040
2016-08-26T10:49:18.628Z,3156
2016-08-26T10:50:18.794Z,3264
2016-08-26T10:51:18.081Z,3392
2016-08-26T10:52:18.767Z,3228
2016-08-26T10:53:18.458Z,3368
2016-08-26T10:54:18.470Z,3648
2016-08-26T10:55:17.678Z,2428
2016-08-26T10:56:17.624Z,2496
2016-08-26T10:57:18.728Z,3604
2016-08-26T10:58:17.585Z,3580
2016-08-26T10:59:18.222Z,2792
2016-08-26T11:00:18.178Z,2380
2016-08-26T11:01:18.131Z,2484
2016-08-26T11:02:17.399Z,1804
2016-08-26T11:03:16.866Z,2840
2016-08-26T11:04:17.558Z,3128
2016-08-26T11:05:17.299Z,3356
2016-08-26T11:06:17.970Z,3700
2016-08-26T11:07:17.278Z,2816
2016-08-26T11:08:17.481Z,2188
2016-08-26T11:09:17.886Z,2792
2016-08-26T11:10:18.952Z,2320
2016-08-26T11:11:18.024Z,2312
2016-08-26T11:12:16.315Z,2528
2016-08-26T11:13:15.590Z,3404
2016-08-26T11:14:16.469Z,2876
2016-08-26T11:15:16.895Z,2920
2016-08-26T11:16:16.147Z,2592
2016-08-26T11:17:17.596Z,3920
2016-08-26T11:18:15.382Z,4076
2016-08-26T11:19:16.045Z,4072
2016-08-26T11:20:16.756Z,3320
2016-08-26T11:21:17.804Z,3520
2016-08-26T11:22:16.615Z,4040
2016-08-26T11:23:16.620Z,3664
2016-08-26T11:24:16.778Z,3396
2016-08-26T11:25:15.862Z,3520
2016-08-26T11:26:16.542Z,4004
2016-08-26T11:27:17.136Z,3356
2016-08-26T11:28:16.607Z,3784
2016-08-26T11:29:17.337Z,3652
2016-08-26T11:30:17.235Z,2860
2016-08-26T11:31:16.487Z,2812
2016-08-26T11:32:16.969Z,2848
2016-08-26T11:33:16.248Z,3192
2016-08-26T11:34:16.557Z,3240
2016-08-26T11:35:17.043Z,2964
2016-08-26T11:36:16.835Z,3444
2016-08-26T11:37:16.924Z,2888
2016-08-26T11:38:16.979Z,3408
2016-08-26T11:39:16.194Z,3556
2016-08-26T11:40:16.870Z,3628
2016-08-26T11:41:15.894Z,3632
2016-08-26T11:42:16.780Z,3088
2016-08-26T11:43:15.827Z,3952
2016-08-26T11:44:16.765Z,3976
2016-08-26T11:45:16.163Z,4056
2016-08-26T11:46:15.743Z,4128
2016-08-26T11:47:15.671Z,4184
2016-08-26T11:48:16.625Z,4184
2016-08-26T11:49:16.375Z,3672
2016-08-26T11:50:16.575Z,3544
2016-08-26T11:51:15.570Z,3396
2016-08-26T11:52:16.270Z,4216
2016-08-26T11:53:16.402Z,3856
2016-08-26T11:54:14.966Z,4148
2016-08-26T11:55:16.250Z,4088
2016-08-26T11:56:16.233Z,4096
2016-08-26T11:57:16.003Z,4112
2016-08-26T11:58:15.274Z,4188
2016-08-26T11:59:15.236Z,4236
2016-08-26T12:00:15.642Z,4228
2016-08-26T12:01:16.214Z,4160
2016-08-26T12:02:16.996Z,4240
2016-08-26T12:03:15.161Z,4248
2016-08-26T12:04:15.721Z,4288
2016-08-26T12:05:14.487Z,4092
2016-08-26T12:06:16.328Z,3124
2016-08-26T12:07:16.802Z,3332
2016-08-26T12:08:15.771Z,3948
2016-08-26T12:09:15.082Z,4164
2016-08-26T12:10:15.782Z,4152
2016-08-26T12:11:15.529Z,4100
2016-08-26T12:12:15.738Z,4140
2016-08-26T12:13:15.005Z,3996
2016-08-26T12:14:15.582Z,4060
2016-08-26T12:15:15.430Z,4000
2016-08-26T12:16:15.471Z,4068
2016-08-26T12:17:15.247Z,4144
2016-08-26T12:18:14.510Z,4132
2016-08-26T12:19:15.182Z,4232
2016-08-26T12:20:14.431Z,4232
2016-08-26T12:21:14.691Z,4256
2016-08-26T12:22:15.044Z,4264
2016-08-26T12:23:14.591Z,4204
2016-08-26T12:24:14.881Z,4220
2016-08-26T12:25:14.952Z,4308
2016-08-26T12:26:15.169Z,4384
2016-08-26T12:27:14.864Z,4268
2016-08-26T12:28:14.442Z,4300
2016-08-26T12:29:14.826Z,4324
2016-08-26T12:30:14.241Z,4312
2016-08-26T12:31:14.002Z,4296
2016-08-26T12:32:13.998Z,4368
2016-08-26T12:33:14.141Z,4312
2016-08-26T12:34:14.994Z,4456
2016-08-26T12:35:14.601Z,4452
2016-08-26T12:36:14.790Z,4452
2016-08-26T12:37:14.491Z,4452
2016-08-26T12:38:13.759Z,4400
2016-08-26T12:39:14.017Z,4324
2016-08-26T12:40:13.712Z,4364
2016-08-26T12:41:15.222Z,4320
2016-08-26T12:42:13.283Z,4316
2016-08-26T12:43:14.368Z,4280
2016-08-26T12:44:13.568Z,4288
2016-08-26T12:45:13.478Z,4284
2016-08-26T12:46:12.961Z,4220
2016-08-26T12:47:12.913Z,4208
2016-08-26T12:48:13.434Z,4324
2016-08-26T12:49:14.058Z,4380
2016-08-26T12:50:12.314Z,4376
2016-08-26T12:51:13.959Z,4352
2016-08-26T12:52:12.945Z,4332
2016-08-26T12:53:13.886Z,4356
2016-08-26T12:54:13.356Z,4392
2016-08-26T12:55:14.268Z,4436
2016-08-26T12:56:11.743Z,4432
2016-08-26T12:57:13.740Z,4384
2016-08-26T12:58:13.439Z,4400
2016-08-26T12:59:13.773Z,4252
2016-08-26T13:00:12.950Z,4188
2016-08-26T13:01:13.146Z,4364
2016-08-26T13:02:13.586Z,4368
2016-08-26T13:03:13.531Z,4380
2016-08-26T13:04:12.068Z,4532
2016-08-26T13:05:13.553Z,4620
2016-08-26T13:06:12.711Z,4620
2016-08-26T13:07:13.549Z,4640
2016-08-26T13:08:12.608Z,4668
2016-08-26T13:09:12.821Z,4748
2016-08-26T13:10:12.045Z,4688
2016-08-26T13:11:12.506Z,4560
2016-08-26T13:12:13.188Z,4496
2016-08-26T13:13:12.466Z,4556
2016-08-26T13:14:12.417Z,4680
2016-08-26T13:15:12.547Z,4652
2016-08-26T13:16:12.013Z,4788
2016-08-26T13:17:12.723Z,4872
2016-08-26T13:18:13.147Z,4732
2016-08-26T13:19:12.835Z,4636
2016-08-26T13:20:11.463Z,4584
2016-08-26T13:21:13.465Z,4736
2016-08-26T13:22:13.002Z,4820
2016-08-26T13:23:11.366Z,4864
2016-08-26T13:24:13.316Z,5020
2016-08-26T13:25:11.581Z,4928
2016-08-26T13:26:10.960Z,4800
2016-08-26T13:27:12.544Z,4852
2016-08-26T13:28:12.998Z,4852
2016-08-26T13:29:11.862Z,4820
2016-08-26T13:30:12.014Z,5028
2016-08-26T13:31:11.058Z,4964
2016-08-26T13:32:10.326Z,5020
2016-08-26T13:33:12.851Z,4956
2016-08-26T13:34:11.687Z,4792
2016-08-26T13:35:12.570Z,5100
2016-08-26T13:36:10.882Z,5080
2016-08-26T13:37:11.543Z,4512
2016-08-26T13:38:11.712Z,4600
2016-08-26T13:39:10.059Z,4700
2016-08-26T13:40:12.401Z,4828
2016-08-26T13:41:11.406Z,4896
2016-08-26T13:42:11.497Z,5116
2016-08-26T13:43:12.145Z,4972
2016-08-26T13:44:12.015Z,4928
2016-08-26T13:45:11.958Z,4844
2016-08-26T13:46:12.005Z,5188
2016-08-26T13:47:12.043Z,5240
2016-08-26T13:48:11.144Z,5212
2016-08-26T13:49:11.838Z,4952